Time;durP1;ratioP1;P1;durP2;ratioP2;P2;SDS_P1;SDS_P2;PMS_P1;PMS_P2;Temp;Humidity;BMP_temperature;BMP_pressure;BME280_temperature;BME280_humidity;BME280_pressure;Samples;Min_cycle;Max_cycle;Signal;HPM_P1;HPM_P2
2023/02/12 00:00:00;;;;;;;44.93;24.40;;;7.10;77.80;;;;;;5017907;28;20539;-74
2023/02/12 00:02:26;;;;;;;43.70;22.27;;;7.10;78.10;;;;;;5015611;28;20617;-75
2023/02/12 00:04:52;;;;;;;43.30;23.07;;;7.00;78.10;;;;;;5024845;28;20423;-73
2023/02/12 00:07:17;;;;;;;50.20;23.63;;;7.10;78.10;;;;;;5017296;28;20217;-75
2023/02/12 00:09:43;;;;;;;46.17;23.90;;;7.10;78.00;;;;;;5016425;28;20186;-75
2023/02/12 00:12:09;;;;;;;50.83;24.27;;;7.20;77.70;;;;;;5021388;28;20178;-74
2023/02/12 00:14:36;;;;;;;43.60;23.27;;;7.10;77.70;;;;;;5020207;28;20205;-74
2023/02/12 00:17:02;;;;;;;46.80;23.50;;;7.20;77.70;;;;;;5020892;28;20496;-74
2023/02/12 00:19:28;;;;;;;48.97;23.77;;;7.20;77.60;;;;;;5014969;28;20421;-75
2023/02/12 00:21:54;;;;;;;44.47;21.80;;;7.10;77.80;;;;;;5025569;28;20422;-74
2023/02/12 00:24:19;;;;;;;52.00;23.30;;;7.10;78.00;;;;;;5034916;28;20453;-73
2023/02/12 00:26:47;;;;;;;47.87;22.93;;;7.20;78.00;;;;;;5035813;28;20189;-74
2023/02/12 00:29:13;;;;;;;53.13;24.23;;;7.20;78.00;;;;;;5035801;28;20200;-73
2023/02/12 00:31:39;;;;;;;46.63;22.90;;;7.20;77.80;;;;;;5034703;28;20444;-75
2023/02/12 00:34:04;;;;;;;48.00;22.90;;;7.20;78.00;;;;;;5025964;28;20476;-74
2023/02/12 00:36:31;;;;;;;45.13;23.10;;;7.20;78.10;;;;;;5025547;28;20197;-75
2023/02/12 00:38:57;;;;;;;51.27;25.30;;;7.10;78.10;;;;;;5014901;28;20212;-76
2023/02/12 00:41:23;;;;;;;51.70;23.73;;;7.20;78.10;;;;;;5015734;28;20431;-76
2023/02/12 00:43:49;;;;;;;43.07;23.17;;;7.20;78.10;;;;;;5010083;28;20472;-76
2023/02/12 00:46:15;;;;;;;44.43;24.77;;;7.20;78.00;;;;;;5012561;28;20483;-75
2023/02/12 00:48:40;;;;;;;55.63;25.80;;;7.20;78.00;;;;;;5017680;28;20868;-75
2023/02/12 00:51:07;;;;;;;43.90;23.90;;;7.20;78.00;;;;;;5018079;28;20664;-75
2023/02/12 00:53:33;;;;;;;45.90;24.37;;;7.20;78.00;;;;;;5006366;28;20209;-75
2023/02/12 00:55:59;;;;;;;48.43;24.87;;;7.10;77.80;;;;;;5011109;28;20559;-76
2023/02/12 00:58:25;;;;;;;52.00;24.60;;;7.10;78.00;;;;;;5012930;28;20425;-75
2023/02/12 01:00:51;;;;;;;52.10;24.77;;;7.10;78.10;;;;;;5013453;28;20444;-76
2023/02/12 01:03:17;;;;;;;43.17;22.27;;;7.10;78.10;;;;;;5012827;28;20300;-75
2023/02/12 01:05:43;;;;;;;46.30;23.93;;;7.10;78.40;;;;;;5017806;28;20515;-75
2023/02/12 01:08:12;;;;;;;52.53;24.77;;;7.00;78.40;;;;;;5016636;28;20528;-74
2023/02/12 01:10:38;;;;;;;47.30;24.23;;;7.00;78.60;;;;;;5018075;28;20222;-77
2023/02/12 01:13:03;;;;;;;48.57;23.83;;;7.10;78.30;;;;;;5011683;28;20469;-75
2023/02/12 01:15:29;;;;;;;47.77;24.53;;;7.10;78.30;;;;;;5018535;28;20205;-75
2023/02/12 01:17:55;;;;;;;51.80;26.07;;;7.10;78.10;;;;;;5022025;28;20181;-76
2023/02/12 01:20:22;;;;;;;46.67;23.90;;;7.10;78.10;;;;;;5027935;28;20803;-76
2023/02/12 01:22:48;;;;;;;52.60;24.10;;;7.00;78.00;;;;;;5018731;28;20579;-76
2023/02/12 01:25:15;;;;;;;52.57;24.47;;;7.00;78.40;;;;;;5020928;28;20459;-76
2023/02/12 01:27:40;;;;;;;44.67;24.10;;;7.00;78.70;;;;;;5010947;28;20432;-75
2023/02/12 01:30:08;;;;;;;56.30;26.73;;;7.00;78.60;;;;;;5016925;28;20429;-74
2023/02/12 01:32:34;;;;;;;48.67;24.07;;;7.00;78.10;;;;;;5013384;28;20869;-77
2023/02/12 01:35:00;;;;;;;52.60;25.63;;;7.00;78.00;;;;;;5013175;28;20476;-77
2023/02/12 01:37:25;;;;;;;52.87;26.77;;;6.90;78.40;;;;;;5012952;28;20526;-76
2023/02/12 01:39:51;;;;;;;54.70;26.10;;;6.90;78.40;;;;;;5012523;28;20178;-75
2023/02/12 01:42:20;;;;;;;49.67;24.63;;;6.90;78.70;;;;;;5009111;28;20186;-74
2023/02/12 01:45:11;;;;;;;53.10;25.40;;;6.90;78.60;;;;;;5011735;28;20333;-75
2023/02/12 01:47:37;;;;;;;46.80;25.10;;;7.00;78.40;;;;;;5011925;28;20519;-75
2023/02/12 01:50:05;;;;;;;53.90;25.37;;;6.90;78.40;;;;;;5012194;28;20443;-73
2023/02/12 01:52:35;;;;;;;52.10;26.50;;;6.80;78.70;;;;;;5005565;28;20559;-75
2023/02/12 01:55:05;;;;;;;55.60;25.03;;;6.90;78.70;;;;;;5011205;28;20523;-75
2023/02/12 01:57:33;;;;;;;54.60;27.70;;;6.90;78.70;;;;;;5016859;28;20421;-76
2023/02/12 02:00:02;;;;;;;50.53;23.33;;;6.90;78.90;;;;;;5023865;28;20432;-75
2023/02/12 02:02:30;;;;;;;45.87;23.60;;;6.90;79.00;;;;;;5020451;28;20555;-75
2023/02/12 02:05:00;;;;;;;56.47;26.40;;;6.90;79.00;;;;;;5013574;28;20950;-76
2023/02/12 02:07:26;;;;;;;48.03;24.90;;;6.90;78.90;;;;;;5017590;28;20456;-75
2023/02/12 02:09:52;;;;;;;51.43;24.33;;;6.90;78.90;;;;;;5016414;28;20468;-76
2023/02/12 02:15:03;;;;;;;48.03;25.00;;;6.90;78.60;;;;;;5025676;28;20474;-76
2023/02/12 02:17:55;;;;;;;60.97;28.10;;;6.90;78.60;;;;;;5017199;28;20418;-77
2023/02/12 02:20:27;;;;;;;45.50;23.03;;;6.90;78.60;;;;;;5021771;28;20412;-74
2023/02/12 02:23:17;;;;;;;52.70;24.73;;;6.90;78.70;;;;;;5030041;28;20453;-75
2023/02/12 02:25:45;;;;;;;51.23;25.30;;;7.00;78.60;;;;;;5040930;28;20431;-77
2023/02/12 02:28:26;;;;;;;51.07;24.70;;;7.00;78.70;;;;;;5039525;28;20503;-75
2023/02/12 02:31:04;;;;;;;48.17;23.80;;;7.00;78.70;;;;;;5027413;28;20520;-75
2023/02/12 02:33:58;;;;;;;50.90;25.83;;;6.90;78.40;;;;;;5033573;28;20478;-75
2023/02/12 02:36:42;;;;;;;45.80;24.40;;;6.80;78.00;;;;;;5024473;28;21102;-76
2023/02/12 02:39:21;;;;;;;49.63;24.77;;;6.80;78.40;;;;;;5016207;28;20453;-75
2023/02/12 02:41:52;;;;;;;51.07;26.27;;;6.70;78.60;;;;;;5015101;28;20518;-75
2023/02/12 02:44:30;;;;;;;48.50;24.53;;;6.70;78.90;;;;;;5024492;28;20582;-74
2023/02/12 02:46:59;;;;;;;51.77;25.73;;;6.60;78.90;;;;;;5018894;28;20431;-76
2023/02/12 02:49:30;;;;;;;50.23;25.90;;;6.60;79.20;;;;;;5026395;28;20424;-77
2023/02/12 02:52:04;;;;;;;47.90;24.73;;;6.60;79.60;;;;;;5025391;28;20427;-75
2023/02/12 02:54:34;;;;;;;52.70;23.77;;;6.60;79.90;;;;;;5014152;28;20432;-76
2023/02/12 02:57:12;;;;;;;48.97;23.10;;;6.70;79.90;;;;;;5019543;28;20455;-76
2023/02/12 02:59:45;;;;;;;60.43;25.13;;;6.70;80.00;;;;;;5010502;28;20417;-76
2023/02/12 03:02:20;;;;;;;46.47;23.90;;;6.70;79.90;;;;;;5019786;28;20450;-74
2023/02/12 03:04:50;;;;;;;54.53;27.43;;;6.80;80.00;;;;;;5013373;28;20491;-76
2023/02/12 03:07:23;;;;;;;49.97;26.17;;;6.80;79.90;;;;;;5021249;28;20440;-74
2023/02/12 03:09:56;;;;;;;49.90;26.10;;;6.80;79.90;;;;;;5027056;28;20435;-75
2023/02/12 03:12:46;;;;;;;57.77;25.60;;;6.80;79.70;;;;;;5015516;28;20448;-74
2023/02/12 03:15:37;;;;;;;47.70;23.30;;;6.80;79.90;;;;;;5018573;28;20575;-74
2023/02/12 03:18:08;;;;;;;50.97;25.07;;;6.80;80.00;;;;;;5019092;28;20423;-74
2023/02/12 03:20:43;;;;;;;53.07;24.87;;;6.80;80.20;;;;;;5018617;28;20979;-74
2023/02/12 03:23:18;;;;;;;48.00;23.93;;;6.90;79.90;;;;;;5018321;28;20546;-74
2023/02/12 03:26:00;;;;;;;50.10;24.57;;;6.90;79.70;;;;;;5027093;28;20435;-74
2023/02/12 03:28:30;;;;;;;46.50;23.07;;;6.90;79.90;;;;;;5019935;28;20524;-74
2023/02/12 03:31:25;;;;;;;42.60;23.67;;;6.90;79.90;;;;;;5014213;28;20908;-75
2023/02/12 03:33:56;;;;;;;49.37;25.33;;;6.90;79.70;;;;;;5006776;28;20975;-74
2023/02/12 03:36:35;;;;;;;50.40;25.60;;;6.90;79.70;;;;;;5021332;28;20467;-74
2023/02/12 03:39:12;;;;;;;48.57;25.17;;;6.90;79.60;;;;;;5014435;28;20435;-75
2023/02/12 03:41:48;;;;;;;47.97;23.50;;;6.90;79.30;;;;;;5013946;28;20459;-74
2023/02/12 03:44:48;;;;;;;63.10;27.60;;;6.90;79.20;;;;;;5007865;28;20539;-74
2023/02/12 03:47:16;;;;;;;47.83;25.67;;;6.90;79.00;;;;;;5017562;28;20455;-75
2023/02/12 03:50:10;;;;;;;54.37;26.93;;;6.90;79.00;;;;;;5013629;28;20946;-74
2023/02/12 03:52:36;;;;;;;57.13;25.73;;;6.90;79.30;;;;;;5009133;28;20458;-74
2023/02/12 03:55:03;;;;;;;49.60;24.93;;;6.90;79.20;;;;;;5013894;28;20473;-73
2023/02/12 03:57:34;;;;;;;49.57;25.83;;;6.90;79.30;;;;;;5013936;28;20419;-75
2023/02/12 04:00:06;;;;;;;50.13;24.03;;;6.90;79.60;;;;;;5023635;28;20421;-74
2023/02/12 04:02:33;;;;;;;48.37;24.30;;;6.90;79.50;;;;;;5016395;28;20552;-75
2023/02/12 04:05:05;;;;;;;49.57;23.20;;;6.90;79.60;;;;;;5023955;28;20432;-75
2023/02/12 04:07:31;;;;;;;56.93;26.63;;;7.00;79.60;;;;;;5021808;28;20425;-75
2023/02/12 04:09:57;;;;;;;49.43;26.50;;;7.00;79.50;;;;;;5021433;28;20425;-74
2023/02/12 04:12:33;;;;;;;50.23;25.70;;;7.00;79.50;;;;;;5017986;28;20865;-74
2023/02/12 04:15:08;;;;;;;58.90;27.10;;;6.90;79.60;;;;;;5024805;28;20283;-74
2023/02/12 04:17:37;;;;;;;50.10;24.93;;;6.90;79.60;;;;;;5014820;28;20459;-74
2023/02/12 04:20:12;;;;;;;51.20;25.60;;;7.00;79.60;;;;;;5025805;28;20420;-74
2023/02/12 04:23:01;;;;;;;53.07;25.30;;;7.00;79.60;;;;;;5040116;28;20439;-74
2023/02/12 04:25:45;;;;;;;51.53;24.60;;;6.90;79.60;;;;;;5024056;28;20516;-74
2023/02/12 04:28:40;;;;;;;48.43;23.53;;;6.90;79.60;;;;;;5023762;28;20448;-74
2023/02/12 04:31:19;;;;;;;54.37;24.70;;;7.00;79.70;;;;;;5014391;28;20753;-74
2023/02/12 04:34:24;;;;;;;48.03;23.20;;;7.00;79.50;;;;;;5019514;28;20468;-73
2023/02/12 04:37:02;;;;;;;50.00;23.20;;;7.00;79.30;;;;;;5037288;28;20439;-74
2023/02/12 04:39:30;;;;;;;56.10;24.83;;;7.00;79.20;;;;;;5025320;28;20450;-74
2023/02/12 04:42:03;;;;;;;49.43;25.47;;;7.00;79.20;;;;;;5024339;28;20433;-73
2023/02/12 04:44:31;;;;;;;58.90;25.83;;;6.90;79.20;;;;;;5028333;28;20910;-74
2023/02/12 04:46:57;;;;;;;52.30;28.50;;;6.90;79.00;;;;;;5029576;28;20452;-74
2023/02/12 04:49:23;;;;;;;49.67;28.03;;;6.90;78.70;;;;;;5030985;28;20544;-74
2023/02/12 04:51:49;;;;;;;53.73;26.73;;;6.80;78.40;;;;;;5023477;28;20416;-74
2023/02/12 04:54:17;;;;;;;55.10;28.53;;;6.70;78.60;;;;;;5018426;28;21054;-76
2023/02/12 04:56:43;;;;;;;51.40;27.87;;;6.70;78.90;;;;;;5021693;28;20198;-73
2023/02/12 04:59:09;;;;;;;59.50;26.20;;;6.70;79.00;;;;;;5021952;28;20506;-75
2023/02/12 05:01:37;;;;;;;58.07;28.43;;;6.70;79.30;;;;;;5031986;28;20938;-76
2023/02/12 05:04:03;;;;;;;59.60;30.90;;;6.70;79.00;;;;;;5019595;28;20998;-75
2023/02/12 05:06:31;;;;;;;57.60;28.87;;;6.70;78.90;;;;;;5024573;28;20525;-75
2023/02/12 05:08:57;;;;;;;52.23;29.10;;;6.50;78.60;;;;;;5027788;28;20432;-75
2023/02/12 05:11:23;;;;;;;55.63;29.03;;;6.40;78.70;;;;;;5024208;28;20943;-75
2023/02/12 05:13:50;;;;;;;57.97;28.83;;;6.40;79.00;;;;;;5026740;28;20213;-75
2023/02/12 05:16:16;;;;;;;54.73;28.63;;;6.40;79.00;;;;;;5031998;28;20467;-76
2023/02/12 05:18:43;;;;;;;54.77;28.27;;;6.50;79.20;;;;;;5027938;28;20471;-75
2023/02/12 05:21:08;;;;;;;57.57;27.90;;;6.50;79.30;;;;;;5021622;28;20425;-74
2023/02/12 05:23:37;;;;;;;60.50;27.50;;;6.50;79.00;;;;;;5027908;28;20474;-75
2023/02/12 05:26:06;;;;;;;53.00;29.53;;;6.60;78.70;;;;;;5022006;28;20193;-76
2023/02/12 05:28:32;;;;;;;58.73;28.17;;;6.60;78.60;;;;;;5019073;28;20871;-75
2023/02/12 05:31:06;;;;;;;55.33;29.50;;;6.50;78.60;;;;;;5014709;28;20583;-74
2023/02/12 05:33:32;;;;;;;58.30;29.60;;;6.40;78.60;;;;;;5008819;28;20684;-75
2023/02/12 05:36:09;;;;;;;49.60;27.50;;;6.40;79.00;;;;;;5012131;28;20475;-74
2023/02/12 05:38:35;;;;;;;59.43;31.03;;;6.50;79.20;;;;;;5006757;28;20181;-75
2023/02/12 05:41:09;;;;;;;60.43;29.27;;;6.50;78.70;;;;;;5030079;28;20423;-75
2023/02/12 05:43:34;;;;;;;57.97;30.57;;;6.50;78.70;;;;;;5018615;28;20217;-75
2023/02/12 05:46:02;;;;;;;47.73;26.70;;;6.50;78.70;;;;;;5015154;28;20425;-73
2023/02/12 05:48:28;;;;;;;54.80;28.50;;;6.50;78.90;;;;;;5015000;28;20268;-75
2023/02/12 05:51:00;;;;;;;56.23;29.00;;;6.50;79.00;;;;;;5024325;28;20511;-75
2023/02/12 05:53:25;;;;;;;51.07;26.47;;;6.50;79.20;;;;;;5016484;28;20500;-76
2023/02/12 05:55:51;;;;;;;45.20;24.57;;;6.60;79.20;;;;;;5018725;28;20529;-74
2023/02/12 05:58:16;;;;;;;52.87;26.20;;;6.60;79.30;;;;;;5024545;28;20185;-74
2023/02/12 06:00:42;;;;;;;49.77;25.93;;;6.60;79.30;;;;;;5020336;28;20190;-75
2023/02/12 06:03:07;;;;;;;52.17;27.47;;;6.70;79.30;;;;;;5015304;28;20654;-75
2023/02/12 06:05:33;;;;;;;54.97;27.73;;;6.70;79.30;;;;;;5020349;28;20212;-75
2023/02/12 06:07:59;;;;;;;50.43;25.70;;;6.70;79.30;;;;;;5018158;28;20205;-74
2023/02/12 06:10:24;;;;;;;49.70;25.60;;;6.70;79.30;;;;;;5024252;28;20277;-76
2023/02/12 06:12:53;;;;;;;58.17;26.70;;;6.70;79.30;;;;;;5027812;28;20202;-75
2023/02/12 06:15:19;;;;;;;47.60;24.80;;;6.60;79.70;;;;;;5027794;28;20238;-75
2023/02/12 06:17:44;;;;;;;50.87;25.97;;;6.60;80.00;;;;;;5018655;28;20536;-75
2023/02/12 06:20:10;;;;;;;52.07;26.07;;;6.60;80.20;;;;;;5016551;28;20317;-76
2023/02/12 06:22:37;;;;;;;51.77;25.03;;;6.60;80.30;;;;;;5018576;28;20205;-76
2023/02/12 06:25:03;;;;;;;51.80;26.87;;;6.60;80.30;;;;;;5021853;28;20625;-76
2023/02/12 06:27:29;;;;;;;45.67;25.20;;;6.60;80.50;;;;;;5024201;28;20838;-77
2023/02/12 06:29:54;;;;;;;52.80;25.23;;;6.60;80.60;;;;;;5026859;28;20429;-75
2023/02/12 06:32:21;;;;;;;53.30;26.13;;;6.60;80.60;;;;;;5022200;28;20199;-74
2023/02/12 06:34:46;;;;;;;52.57;25.77;;;6.60;80.50;;;;;;5022903;28;20209;-76
2023/02/12 06:37:12;;;;;;;51.70;25.80;;;6.60;80.50;;;;;;5018629;28;20428;-76
2023/02/12 06:39:37;;;;;;;52.00;28.30;;;6.60;80.50;;;;;;5016503;28;20181;-75
2023/02/12 06:42:03;;;;;;;57.37;27.30;;;6.60;80.50;;;;;;5022206;28;20205;-76
2023/02/12 06:44:29;;;;;;;59.67;29.57;;;6.60;80.50;;;;;;5016396;28;20277;-75
2023/02/12 06:46:54;;;;;;;55.43;28.43;;;6.60;80.50;;;;;;5024952;28;20201;-75
2023/02/12 06:49:20;;;;;;;55.33;26.97;;;6.60;80.30;;;;;;5018949;28;20190;-75
2023/02/12 06:51:45;;;;;;;48.97;25.00;;;6.60;80.30;;;;;;5017818;28;20221;-76
2023/02/12 06:54:16;;;;;;;54.37;26.23;;;6.70;80.30;;;;;;5010705;28;20581;-75
2023/02/12 06:56:42;;;;;;;61.77;29.93;;;6.70;80.30;;;;;;5021165;28;20213;-74
2023/02/12 06:59:12;;;;;;;56.33;29.00;;;6.70;80.20;;;;;;5028222;28;20417;-76
2023/02/12 07:01:38;;;;;;;53.20;28.67;;;6.80;80.00;;;;;;5027898;28;20527;-76
2023/02/12 07:04:04;;;;;;;53.30;28.73;;;6.80;79.90;;;;;;5016431;28;20586;-74
2023/02/12 07:06:32;;;;;;;58.67;28.83;;;6.80;79.60;;;;;;5026243;28;20236;-75
2023/02/12 07:08:57;;;;;;;53.07;27.07;;;6.90;78.70;;;;;;5023809;28;20264;-75
2023/02/12 07:11:27;;;;;;;53.23;27.83;;;6.80;78.40;;;;;;5025837;28;20502;-75
2023/02/12 07:13:52;;;;;;;59.97;30.77;;;6.80;78.30;;;;;;5020229;28;20503;-76
2023/02/12 07:16:18;;;;;;;60.40;28.63;;;6.70;78.00;;;;;;5026580;28;20502;-75
2023/02/12 07:18:44;;;;;;;53.47;28.47;;;6.70;78.00;;;;;;5022038;28;20240;-76
2023/02/12 07:21:11;;;;;;;55.13;28.80;;;6.70;77.80;;;;;;5031748;28;20177;-75
2023/02/12 07:23:37;;;;;;;55.00;26.80;;;6.60;78.10;;;;;;5019103;28;20503;-74
2023/02/12 07:26:06;;;;;;;65.47;30.13;;;6.70;78.30;;;;;;5021404;28;20950;-75
2023/02/12 07:28:32;;;;;;;54.47;27.87;;;6.70;77.80;;;;;;5017207;28;20527;-75
2023/02/12 07:30:59;;;;;;;56.93;30.20;;;6.70;77.80;;;;;;5023807;28;20420;-76
2023/02/12 07:33:25;;;;;;;53.30;28.47;;;6.60;78.00;;;;;;5025534;28;20538;-74
2023/02/12 07:35:50;;;;;;;57.23;28.40;;;6.60;78.00;;;;;;5021226;28;20893;-75
2023/02/12 07:38:16;;;;;;;53.87;29.30;;;6.60;78.00;;;;;;5019167;28;20240;-74
2023/02/12 07:40:42;;;;;;;58.70;30.43;;;6.50;78.10;;;;;;5027325;28;20269;-76
2023/02/12 07:43:07;;;;;;;53.50;29.47;;;6.50;78.30;;;;;;5011390;28;20723;-76
2023/02/12 07:45:33;;;;;;;60.23;29.93;;;6.50;78.40;;;;;;5015996;28;20251;-76
2023/02/12 07:47:58;;;;;;;59.33;30.23;;;6.60;78.60;;;;;;5018368;28;20188;-76
2023/02/12 07:50:24;;;;;;;56.13;29.30;;;6.60;78.40;;;;;;5020983;28;20258;-76
2023/02/12 07:52:50;;;;;;;54.87;29.60;;;6.70;78.10;;;;;;5021351;28;20751;-76
2023/02/12 07:55:16;;;;;;;58.53;29.83;;;6.80;77.60;;;;;;5019247;28;20218;-75
2023/02/12 07:57:42;;;;;;;61.73;30.33;;;6.70;77.30;;;;;;5024912;28;20493;-74
2023/02/12 08:00:08;;;;;;;65.87;30.23;;;6.70;77.30;;;;;;5025798;28;20196;-75
2023/02/12 08:02:34;;;;;;;58.30;31.13;;;6.70;77.40;;;;;;5030212;28;20209;-76
2023/02/12 08:05:00;;;;;;;65.80;33.00;;;6.70;77.60;;;;;;5015625;28;20896;-75
2023/02/12 08:07:25;;;;;;;55.17;30.53;;;6.70;77.40;;;;;;5018288;28;20612;-74
2023/02/12 08:09:52;;;;;;;54.50;29.53;;;6.70;77.60;;;;;;5014614;28;20660;-75
2023/02/12 08:12:18;;;;;;;61.93;29.50;;;6.70;77.60;;;;;;5018735;28;20186;-75
2023/02/12 08:14:44;;;;;;;53.80;30.07;;;6.70;77.60;;;;;;5014254;28;20475;-75
2023/02/12 08:17:10;;;;;;;54.17;29.70;;;6.70;77.60;;;;;;5030834;28;20192;-75
2023/02/12 08:19:35;;;;;;;58.23;29.80;;;6.80;77.60;;;;;;5034136;28;20496;-75
2023/02/12 08:22:02;;;;;;;55.27;29.33;;;6.80;77.60;;;;;;5042538;28;20475;-73
2023/02/12 08:24:28;;;;;;;59.90;30.40;;;6.80;77.70;;;;;;5024807;28;20677;-74
2023/02/12 08:26:55;;;;;;;53.77;29.53;;;6.90;77.40;;;;;;5036862;28;20469;-74
2023/02/12 08:29:27;;;;;;;60.20;28.80;;;7.00;77.30;;;;;;5029920;28;20421;-75
2023/02/12 08:32:01;;;;;;;52.00;28.40;;;7.10;77.40;;;;;;5018435;28;20435;-74
2023/02/12 08:34:32;;;;;;;56.90;27.80;;;7.30;77.60;;;;;;5010925;28;20555;-76
2023/02/12 08:36:59;;;;;;;60.30;29.17;;;7.40;77.10;;;;;;5028928;28;20503;-73
2023/02/12 08:39:27;;;;;;;54.53;28.20;;;7.50;76.50;;;;;;5014494;28;20431;-73
2023/02/12 08:41:54;;;;;;;61.10;30.83;;;7.50;76.70;;;;;;5019140;28;20421;-74
2023/02/12 08:44:20;;;;;;;67.67;31.57;;;7.60;76.40;;;;;;5016351;28;20492;-74
2023/02/12 08:46:49;;;;;;;64.10;31.73;;;7.60;76.20;;;;;;5020086;28;20606;-74
2023/02/12 08:49:26;;;;;;;62.70;29.93;;;7.60;76.20;;;;;;5021083;28;20423;-74
2023/02/12 08:51:55;;;;;;;64.30;30.70;;;7.70;76.20;;;;;;5018800;28;20423;-74
2023/02/12 08:54:23;;;;;;;64.60;32.07;;;7.70;76.20;;;;;;5007177;28;20559;-74
2023/02/12 08:56:52;;;;;;;57.63;30.23;;;7.70;75.80;;;;;;5016423;28;20523;-76
2023/02/12 08:59:18;;;;;;;57.97;30.53;;;7.70;75.80;;;;;;5031112;28;20420;-76
2023/02/12 09:01:44;;;;;;;58.63;31.10;;;7.80;75.80;;;;;;5025808;28;20441;-75
2023/02/12 09:04:23;;;;;;;63.53;33.17;;;7.80;75.80;;;;;;5022153;28;20264;-73
2023/02/12 09:06:50;;;;;;;62.03;31.53;;;7.90;75.80;;;;;;5025099;28;20182;-75
2023/02/12 09:09:16;;;;;;;62.23;32.30;;;7.90;75.90;;;;;;5015771;28;21083;-76
2023/02/12 09:11:43;;;;;;;62.90;30.77;;;8.00;75.80;;;;;;5021326;28;20421;-75
2023/02/12 09:14:12;;;;;;;63.47;30.50;;;8.10;75.80;;;;;;5023749;28;20476;-75
2023/02/12 09:16:39;;;;;;;60.40;28.30;;;8.20;75.90;;;;;;5026135;28;20783;-76
2023/02/12 09:19:05;;;;;;;58.17;29.00;;;8.20;76.40;;;;;;5015621;28;20417;-77
2023/02/12 09:21:31;;;;;;;66.83;29.87;;;8.20;76.10;;;;;;5023156;28;20799;-77
2023/02/12 09:23:56;;;;;;;68.77;32.20;;;8.20;76.20;;;;;;5015360;28;20456;-76
2023/02/12 09:26:27;;;;;;;66.80;34.20;;;8.10;75.90;;;;;;5031328;28;20260;-77
2023/02/12 09:28:53;;;;;;;67.30;33.40;;;8.00;75.90;;;;;;5030456;28;20251;-77
2023/02/12 09:31:25;;;;;;;64.13;32.57;;;7.90;75.50;;;;;;5038652;28;20419;-78
2023/02/12 09:33:52;;;;;;;66.67;31.70;;;7.90;75.90;;;;;;5021322;28;20463;-76
2023/02/12 09:36:18;;;;;;;72.67;34.37;;;7.80;75.90;;;;;;5025330;28;20479;-77
2023/02/12 09:38:44;;;;;;;67.30;34.13;;;7.90;75.80;;;;;;5019041;28;20509;-76
2023/02/12 09:41:37;;;;;;;70.90;35.13;;;7.90;75.80;;;;;;5018117;28;20182;-77
2023/02/12 09:44:11;;;;;;;65.23;34.77;;;7.90;75.50;;;;;;5014255;28;20206;-77
2023/02/12 09:46:54;;;;;;;64.33;33.47;;;8.00;75.40;;;;;;5010243;28;20430;-75
2023/02/12 09:49:48;;;;;;;59.93;31.33;;;8.10;75.20;;;;;;5013594;28;20454;-76
2023/02/12 09:52:20;;;;;;;64.53;32.97;;;8.20;75.40;;;;;;5009886;28;20463;-76
2023/02/12 09:54:48;;;;;;;68.37;32.80;;;8.30;74.80;;;;;;5010521;28;20425;-75
2023/02/12 09:57:35;;;;;;;70.23;33.20;;;8.30;74.80;;;;;;5011491;28;20465;-76
2023/02/12 10:00:30;;;;;;;66.87;32.73;;;8.30;74.90;;;;;;5016716;28;20447;-76
2023/02/12 10:03:01;;;;;;;61.57;30.83;;;8.40;75.10;;;;;;4987303;28;20465;-77
2023/02/12 10:05:35;;;;;;;67.80;32.67;;;8.40;74.90;;;;;;4989873;28;20448;-76
2023/02/12 10:08:21;;;;;;;58.07;31.20;;;8.40;74.90;;;;;;4990886;28;20517;-74
2023/02/12 10:10:52;;;;;;;57.10;30.40;;;8.40;75.20;;;;;;4991367;28;20437;-75
2023/02/12 10:13:32;;;;;;;65.93;32.70;;;8.50;75.10;;;;;;4989201;28;20475;-75
2023/02/12 10:16:24;;;;;;;59.37;29.13;;;8.50;75.20;;;;;;4989660;28;21019;-76
2023/02/12 10:18:54;;;;;;;59.03;29.97;;;8.60;75.10;;;;;;5007033;28;20895;-75
2023/02/12 10:21:43;;;;;;;61.03;32.40;;;8.60;74.90;;;;;;5007263;28;20814;-75
2023/02/12 10:24:34;;;;;;;68.03;31.87;;;8.70;74.90;;;;;;5006122;28;20454;-76
2023/02/12 10:27:10;;;;;;;55.40;28.63;;;8.60;75.20;;;;;;4990809;28;20953;-77
2023/02/12 10:29:41;;;;;;;61.50;29.07;;;8.50;75.40;;;;;;4990294;28;20472;-77
2023/02/12 10:32:29;;;;;;;58.93;28.40;;;8.50;75.50;;;;;;4990480;28;20441;-76
2023/02/12 10:34:56;;;;;;;59.50;28.47;;;8.60;75.70;;;;;;4989590;28;20512;-76
2023/02/12 10:37:36;;;;;;;55.00;28.60;;;8.70;75.50;;;;;;4980783;28;20437;-76
2023/02/12 10:40:21;;;;;;;53.87;27.17;;;8.80;75.50;;;;;;5007878;28;20581;-76
2023/02/12 10:42:50;;;;;;;51.50;26.30;;;8.90;75.20;;;;;;5017018;28;20461;-77
2023/02/12 10:45:19;;;;;;;61.87;28.07;;;9.00;75.20;;;;;;5019442;28;20446;-75
2023/02/12 10:47:48;;;;;;;58.37;27.10;;;9.00;75.10;;;;;;5016146;28;20429;-76
2023/02/12 10:50:47;;;;;;;53.40;26.87;;;9.10;74.80;;;;;;5020046;28;20496;-76
2023/02/12 10:53:37;;;;;;;51.77;25.20;;;8.90;75.10;;;;;;5005232;28;20563;-76
2023/02/12 10:56:20;;;;;;;50.00;24.10;;;8.80;75.50;;;;;;5016766;28;20551;-76
2023/02/12 10:58:53;;;;;;;43.70;21.43;;;8.80;75.80;;;;;;5016595;28;20507;-77
2023/02/12 11:01:21;;;;;;;39.47;22.17;;;8.90;75.70;;;;;;5021663;28;20827;-76
2023/02/12 11:03:47;;;;;;;45.27;22.80;;;8.90;75.90;;;;;;5008570;28;20487;-76
2023/02/12 11:06:27;;;;;;;39.40;19.90;;;8.90;75.70;;;;;;5016951;28;20574;-76
2023/02/12 11:08:54;;;;;;;41.50;18.27;;;9.00;75.80;;;;;;5014690;28;20801;-76
2023/02/12 11:11:25;;;;;;;30.33;16.50;;;9.00;75.50;;;;;;5020909;28;20433;-74
2023/02/12 11:13:59;;;;;;;33.10;16.07;;;8.90;75.80;;;;;;5016178;28;20493;-76
2023/02/12 11:16:34;;;;;;;33.33;17.87;;;9.00;75.80;;;;;;5026660;28;20470;-75
2023/02/12 11:19:05;;;;;;;35.03;17.70;;;9.10;75.40;;;;;;5025564;28;20792;-77
2023/02/12 11:21:32;;;;;;;36.90;18.27;;;9.10;75.40;;;;;;5019791;28;20421;-75
2023/02/12 11:24:27;;;;;;;37.00;18.23;;;9.10;75.40;;;;;;5025632;28;20455;-76
2023/02/12 11:27:21;;;;;;;36.03;16.67;;;9.10;75.50;;;;;;5035762;28;20451;-74
2023/02/12 11:30:09;;;;;;;31.10;16.40;;;9.10;75.50;;;;;;5023062;28;20427;-74
2023/02/12 11:32:36;;;;;;;31.00;13.97;;;9.20;75.50;;;;;;5018248;28;20461;-75
2023/02/12 11:35:11;;;;;;;24.73;12.00;;;9.30;75.40;;;;;;5020046;28;20971;-76
2023/02/12 11:37:41;;;;;;;23.07;12.27;;;9.10;75.70;;;;;;5026470;28;20428;-75
2023/02/12 11:40:24;;;;;;;22.80;10.63;;;9.10;75.80;;;;;;5025937;28;20452;-76
2023/02/12 11:42:56;;;;;;;16.97;7.90;;;9.30;75.80;;;;;;5025744;28;20452;-74
2023/02/12 11:45:31;;;;;;;13.83;7.17;;;9.40;75.50;;;;;;5018283;28;20472;-76
2023/02/12 11:47:57;;;;;;;16.80;8.10;;;9.30;75.40;;;;;;5020515;28;20538;-76
2023/02/12 11:50:27;;;;;;;15.43;7.10;;;9.20;75.80;;;;;;5022895;28;20511;-73
2023/02/12 11:52:59;;;;;;;14.63;6.87;;;9.20;75.90;;;;;;5020105;28;20974;-74
2023/02/12 11:55:30;;;;;;;14.87;7.60;;;9.30;75.80;;;;;;5015632;28;20519;-74
2023/02/12 11:58:19;;;;;;;14.93;7.63;;;9.40;75.70;;;;;;5026193;28;20458;-74
2023/02/12 12:01:11;;;;;;;13.60;8.10;;;9.50;75.50;;;;;;5013871;28;20445;-74
2023/02/12 12:04:03;;;;;;;16.77;8.40;;;9.50;75.40;;;;;;5007317;28;20468;-75
2023/02/12 12:06:38;;;;;;;15.13;8.13;;;9.50;75.20;;;;;;5025431;28;20517;-75
2023/02/12 12:09:12;;;;;;;16.53;7.87;;;9.50;75.20;;;;;;5029786;28;20428;-77
2023/02/12 12:12:09;;;;;;;14.80;8.00;;;9.60;75.40;;;;;;5019024;28;20516;-74
2023/02/12 12:20:42;;;;;;;15.47;8.07;;;9.50;75.10;;;;;;5015314;28;20410;-76
2023/02/12 12:23:41;;;;;;;19.03;9.00;;;9.40;75.70;;;;;;5023509;28;21130;-74
2023/02/12 12:26:14;;;;;;;15.73;8.43;;;9.40;75.50;;;;;;5024007;28;20445;-79
2023/02/12 12:29:00;;;;;;;14.00;8.57;;;9.50;75.40;;;;;;5026374;28;20437;-76
2023/02/12 12:31:39;;;;;;;14.87;8.33;;;9.50;75.40;;;;;;5033942;28;20519;-76
2023/02/12 12:34:10;;;;;;;17.87;9.23;;;9.40;75.40;;;;;;5031682;28;20485;-78
2023/02/12 12:37:02;;;;;;;13.23;7.50;;;9.30;75.80;;;;;;5020968;28;20479;-74
2023/02/12 12:39:35;;;;;;;18.13;8.70;;;9.50;75.70;;;;;;5029966;28;20852;-77
2023/02/12 12:42:19;;;;;;;17.33;8.23;;;9.50;75.50;;;;;;5027922;28;20417;-76
2023/02/12 12:45:04;;;;;;;18.27;8.60;;;9.50;75.10;;;;;;5024193;28;20409;-76
2023/02/12 12:47:44;;;;;;;13.80;7.53;;;9.30;75.70;;;;;;5029806;28;20911;-76
2023/02/12 12:50:27;;;;;;;17.33;7.67;;;9.30;75.90;;;;;;5029740;28;20447;-74
2023/02/12 12:52:52;;;;;;;12.17;7.00;;;9.30;75.90;;;;;;5027105;28;20489;-74
2023/02/12 12:55:39;;;;;;;15.87;8.03;;;9.50;75.80;;;;;;5025639;28;20468;-75
2023/02/12 12:58:16;;;;;;;13.07;7.63;;;9.40;75.70;;;;;;5023498;28;20173;-75
2023/02/12 13:00:53;;;;;;;18.50;8.80;;;9.50;75.70;;;;;;5015175;28;20506;-75
2023/02/12 13:03:56;;;;;;;13.97;7.30;;;9.50;75.80;;;;;;5007853;28;20465;-77
2023/02/12 13:06:47;;;;;;;10.60;7.67;;;9.50;75.50;;;;;;5021926;28;20485;-76
2023/02/12 13:09:15;;;;;;;12.30;7.60;;;9.50;75.50;;;;;;5018596;28;20867;-76